Time;durP1;ratioP1;P1;durP2;ratioP2;P2;SDS_P1;SDS_P2;PMS_P1;PMS_P2;Temp;Humidity;BMP_temperature;BMP_pressure;BME280_temperature;BME280_humidity;BME280_pressure;Samples;Min_cycle;Max_cycle;Signal;HPM_P1;HPM_P2
2022/04/17 00:00:17;;;;;;;0.10;0.10;;;;;;;;;;1796566;79;26267;-49
2022/04/17 00:02:44;;;;;;;0.23;0.23;;;;;;;;;;1796631;79;26271;-50
2022/04/17 00:05:12;;;;;;;0.20;0.20;;;;;;;;;;1788140;79;26279;-48
2022/04/17 00:07:39;;;;;;;0.40;0.40;;;;;;;;;;1821076;77;26296;-45
2022/04/17 00:10:09;;;;;;;0.10;0.10;;;;;;;;;;1814240;77;26306;-45
2022/04/17 00:12:39;;;;;;;0.10;0.10;;;;;;;;;;1816869;79;26361;-46
2022/04/17 00:15:07;;;;;;;0.17;0.17;;;;;;;;;;1809272;78;26951;-45
2022/04/17 00:17:37;;;;;;;0.25;0.25;;;;;;;;;;1797226;79;26732;-47
2022/04/17 00:20:04;;;;;;;0.10;0.10;;;;;;;;;;1818133;77;26362;-45
2022/04/17 00:22:32;;;;;;;0.20;0.20;;;;;;;;;;1806140;79;26551;-46
2022/04/17 00:25:01;;;;;;;0.10;0.10;;;;;;;;;;1811516;77;26294;-44
2022/04/17 00:27:28;;;;;;;0.35;0.25;;;;;;;;;;1807707;79;26294;-45
2022/04/17 00:29:55;;;;;;;0.20;0.20;;;;;;;;;;1817707;79;26291;-45
2022/04/17 00:32:23;;;;;;;1.17;0.30;;;;;;;;;;1830640;77;26357;-47
2022/04/17 00:34:50;;;;;;;0.10;0.10;;;;;;;;;;1817856;79;26227;-49
2022/04/17 00:37:18;;;;;;;0.13;0.13;;;;;;;;;;1817709;79;26223;-44
2022/04/17 00:39:45;;;;;;;0.20;0.20;;;;;;;;;;1821803;77;26287;-49
2022/04/17 00:42:12;;;;;;;0.33;0.20;;;;;;;;;;1803286;77;26290;-46
2022/04/17 00:44:39;;;;;;;0.10;0.10;;;;;;;;;;1788152;79;26274;-45
2022/04/17 00:47:08;;;;;;;0.15;0.15;;;;;;;;;;1771071;79;26361;-47
2022/04/17 00:49:36;;;;;;;0.20;0.20;;;;;;;;;;1784904;80;26291;-47
2022/04/17 00:52:04;;;;;;;0.20;0.20;;;;;;;;;;1783046;79;26404;-47
2022/04/17 00:54:31;;;;;;;0.20;0.20;;;;;;;;;;1774759;79;26271;-47
2022/04/17 00:57:00;;;;;;;0.20;0.20;;;;;;;;;;1784885;80;26751;-47
2022/04/17 00:59:28;;;;;;;0.20;0.20;;;;;;;;;;1780550;80;26758;-47
2022/04/17 01:01:56;;;;;;;0.20;0.20;;;;;;;;;;1784569;80;26322;-46
2022/04/17 01:04:23;;;;;;;0.30;0.30;;;;;;;;;;1788687;79;26597;-46
2022/04/17 01:06:50;;;;;;;0.42;0.20;;;;;;;;;;1788904;79;26267;-48
2022/04/17 01:09:18;;;;;;;0.62;0.35;;;;;;;;;;1799439;79;26337;-48
2022/04/17 01:11:45;;;;;;;0.20;0.20;;;;;;;;;;1804825;79;26216;-50
2022/04/17 01:14:12;;;;;;;0.20;0.20;;;;;;;;;;1808975;79;26735;-48
2022/04/17 01:16:39;;;;;;;0.30;0.30;;;;;;;;;;1791494;78;26230;-45
2022/04/17 01:19:13;;;;;;;0.30;0.30;;;;;;;;;;1800898;79;26287;-46
2022/04/17 01:21:42;;;;;;;1.20;0.20;;;;;;;;;;1802442;79;26295;-47
2022/04/17 01:26:58;;;;;;;0.20;0.20;;;;;;;;;;1813767;78;26245;-46
2022/04/17 01:29:31;;;;;;;0.30;0.30;;;;;;;;;;1809656;78;26302;-45
2022/04/17 01:31:59;;;;;;;0.30;0.30;;;;;;;;;;1808082;78;26290;-47
2022/04/17 01:34:27;;;;;;;0.20;0.20;;;;;;;;;;1808476;79;26785;-46
2022/04/17 01:36:54;;;;;;;0.20;0.20;;;;;;;;;;1808648;79;26223;-49
2022/04/17 01:39:22;;;;;;;0.20;0.20;;;;;;;;;;1799935;78;26306;-43
2022/04/17 01:41:50;;;;;;;0.23;0.23;;;;;;;;;;1808633;79;26269;-45
2022/04/17 01:44:18;;;;;;;0.33;0.30;;;;;;;;;;1807114;79;26334;-45
2022/04/17 01:46:46;;;;;;;0.42;0.20;;;;;;;;;;1797041;79;26389;-48
2022/04/17 01:49:19;;;;;;;0.30;0.30;;;;;;;;;;1808558;79;26291;-45
2022/04/17 01:51:44;;;;;;;0.20;0.20;;;;;;;;;;1816544;78;26224;-44
2022/04/17 01:54:12;;;;;;;0.20;0.20;;;;;;;;;;1811891;78;26330;-44
2022/04/17 01:56:40;;;;;;;0.30;0.30;;;;;;;;;;1808926;79;26298;-46
2022/04/17 01:59:08;;;;;;;0.17;0.17;;;;;;;;;;1808708;79;26330;-47
2022/04/17 02:01:38;;;;;;;1.47;0.30;;;;;;;;;;1808618;78;26259;-45
2022/04/17 02:04:06;;;;;;;0.28;0.28;;;;;;;;;;1807381;78;26271;-44
2022/04/17 02:06:35;;;;;;;0.20;0.20;;;;;;;;;;1808858;79;26345;-44
2022/04/17 02:09:03;;;;;;;0.33;0.30;;;;;;;;;;1798432;79;26424;-45
2022/04/17 02:11:30;;;;;;;0.25;0.25;;;;;;;;;;1796655;79;26357;-47
2022/04/17 02:13:58;;;;;;;0.20;0.20;;;;;;;;;;1814478;78;26337;-44
2022/04/17 02:16:25;;;;;;;0.20;0.20;;;;;;;;;;1801300;79;26648;-45
2022/04/17 02:18:53;;;;;;;0.13;0.13;;;;;;;;;;1814072;79;26388;-46
2022/04/17 02:21:21;;;;;;;0.40;0.20;;;;;;;;;;1811933;79;26325;-49
2022/04/17 02:23:49;;;;;;;0.20;0.20;;;;;;;;;;1815613;78;26392;-49
2022/04/17 02:26:17;;;;;;;0.13;0.13;;;;;;;;;;1812514;79;26365;-47
2022/04/17 02:28:44;;;;;;;0.20;0.20;;;;;;;;;;1803526;79;26820;-44
2022/04/17 02:31:12;;;;;;;0.20;0.20;;;;;;;;;;1793114;78;26344;-44
2022/04/17 02:33:40;;;;;;;0.10;0.10;;;;;;;;;;1806923;78;26717;-49
2022/04/17 02:36:07;;;;;;;0.20;0.20;;;;;;;;;;1815625;78;26286;-44
2022/04/17 02:38:35;;;;;;;0.10;0.10;;;;;;;;;;1814384;79;26294;-44
2022/04/17 02:41:02;;;;;;;0.17;0.17;;;;;;;;;;1811906;79;27499;-45
2022/04/17 02:43:29;;;;;;;0.30;0.30;;;;;;;;;;1800703;79;26218;-45
2022/04/17 02:45:56;;;;;;;0.20;0.20;;;;;;;;;;1805248;79;26364;-45
2022/04/17 02:48:24;;;;;;;0.20;0.20;;;;;;;;;;1810451;78;26267;-47
2022/04/17 02:50:51;;;;;;;0.20;0.20;;;;;;;;;;1814064;79;26340;-47
2022/04/17 02:53:20;;;;;;;0.62;0.20;;;;;;;;;;1814376;79;26243;-44
2022/04/17 02:55:48;;;;;;;0.20;0.20;;;;;;;;;;1813736;79;26260;-44
2022/04/17 02:58:15;;;;;;;0.10;0.10;;;;;;;;;;1815259;78;26808;-44
2022/04/17 03:06:02;;;;;;;0.15;0.15;;;;;;;;;;1815005;78;26849;-49
2022/04/17 03:08:31;;;;;;;0.15;0.10;;;;;;;;;;1815905;79;26717;-46
2022/04/17 03:10:58;;;;;;;0.20;0.20;;;;;;;;;;1819144;78;26668;-49
2022/04/17 03:13:25;;;;;;;0.10;0.10;;;;;;;;;;1816715;79;26270;-43
2022/04/17 03:15:53;;;;;;;1.75;0.20;;;;;;;;;;1818475;78;26361;-48
2022/04/17 03:18:20;;;;;;;0.40;0.20;;;;;;;;;;1815059;79;26671;-46
2022/04/17 03:20:47;;;;;;;1.30;0.17;;;;;;;;;;1815681;78;26282;-50
2022/04/17 03:23:14;;;;;;;0.62;0.30;;;;;;;;;;1818405;78;26287;-46
2022/04/17 03:25:42;;;;;;;0.10;0.10;;;;;;;;;;1815081;78;26345;-45
2022/04/17 03:28:09;;;;;;;0.33;0.10;;;;;;;;;;1819205;79;26357;-46
2022/04/17 03:30:36;;;;;;;0.10;0.10;;;;;;;;;;1819133;79;25723;-44
2022/04/17 03:33:04;;;;;;;0.10;0.10;;;;;;;;;;1819393;78;26270;-46
2022/04/17 03:35:32;;;;;;;0.98;0.17;;;;;;;;;;1819186;79;26326;-44
2022/04/17 03:38:00;;;;;;;0.53;0.20;;;;;;;;;;1819202;79;26318;-46
2022/04/17 03:40:28;;;;;;;0.80;0.23;;;;;;;;;;1818162;79;26302;-47
2022/04/17 03:42:58;;;;;;;0.10;0.10;;;;;;;;;;1814444;79;26684;-45
2022/04/17 03:45:24;;;;;;;0.20;0.20;;;;;;;;;;1819952;78;26912;-52
2022/04/17 03:47:52;;;;;;;0.20;0.20;;;;;;;;;;1819386;79;26364;-49
2022/04/17 03:50:19;;;;;;;1.37;0.20;;;;;;;;;;1812641;79;26282;-44
2022/04/17 03:52:50;;;;;;;0.13;0.13;;;;;;;;;;1820107;79;26294;-47
2022/04/17 03:55:17;;;;;;;0.08;0.08;;;;;;;;;;1820726;78;26283;-48
2022/04/17 03:57:44;;;;;;;0.37;0.25;;;;;;;;;;1819650;78;26306;-46
2022/04/17 04:00:13;;;;;;;0.10;0.10;;;;;;;;;;1817815;79;27392;-46
2022/04/17 04:02:41;;;;;;;0.20;0.20;;;;;;;;;;1801524;78;26309;-51
2022/04/17 04:05:09;;;;;;;0.20;0.20;;;;;;;;;;1818460;79;26352;-48
2022/04/17 04:07:37;;;;;;;0.00;0.00;;;;;;;;;;1824727;78;26753;-45
2022/04/17 04:10:05;;;;;;;0.45;0.20;;;;;;;;;;1813673;79;26254;-45
2022/04/17 04:12:33;;;;;;;0.10;0.10;;;;;;;;;;1806861;78;26691;-44
2022/04/17 04:15:00;;;;;;;0.65;0.10;;;;;;;;;;1813512;78;26321;-44
2022/04/17 04:17:28;;;;;;;0.62;0.28;;;;;;;;;;1820206;78;26796;-47
2022/04/17 04:19:55;;;;;;;0.25;0.17;;;;;;;;;;1810936;78;26924;-50
2022/04/17 04:22:22;;;;;;;0.10;0.10;;;;;;;;;;1814075;79;26711;-44
2022/04/17 04:24:50;;;;;;;2.83;0.20;;;;;;;;;;1803837;78;26640;-47
2022/04/17 04:30:03;;;;;;;0.20;0.15;;;;;;;;;;1817391;78;26842;-46
2022/04/17 04:32:31;;;;;;;1.32;0.20;;;;;;;;;;1818623;78;26271;-45
2022/04/17 04:35:01;;;;;;;0.47;0.25;;;;;;;;;;1814065;79;26279;-46
2022/04/17 04:37:29;;;;;;;0.30;0.20;;;;;;;;;;1814178;79;26353;-45
2022/04/17 04:39:57;;;;;;;0.10;0.10;;;;;;;;;;1813319;79;26754;-49
2022/04/17 04:42:24;;;;;;;0.20;0.20;;;;;;;;;;1814978;78;26346;-46
2022/04/17 04:46:06;;;;;;;1.57;0.40;;;;;;;;;;1812825;79;26286;-48
2022/04/17 04:47:20;;;;;;;1.80;0.30;;;;;;;;;;1794792;79;26561;-47
2022/04/17 04:49:47;;;;;;;0.30;0.30;;;;;;;;;;1813615;79;26272;-47
2022/04/17 04:52:15;;;;;;;0.45;0.30;;;;;;;;;;1813942;78;26340;-46
2022/04/17 04:54:42;;;;;;;2.37;0.40;;;;;;;;;;1813982;79;26301;-44
2022/04/17 04:57:09;;;;;;;3.17;0.72;;;;;;;;;;1813512;79;26375;-47
2022/04/17 04:59:37;;;;;;;0.93;0.37;;;;;;;;;;1815576;79;26274;-49
2022/04/17 05:02:04;;;;;;;3.25;0.60;;;;;;;;;;1815705;79;26374;-48
2022/04/17 05:04:33;;;;;;;2.67;0.70;;;;;;;;;;1811656;79;26718;-45
2022/04/17 05:07:00;;;;;;;3.02;0.40;;;;;;;;;;1811625;78;26306;-47
2022/04/17 05:09:28;;;;;;;0.90;0.40;;;;;;;;;;1810446;79;26392;-45
2022/04/17 05:11:55;;;;;;;0.33;0.33;;;;;;;;;;1815487;79;26751;-47
2022/04/17 05:14:24;;;;;;;1.40;0.30;;;;;;;;;;1816605;78;26322;-47
2022/04/17 05:16:51;;;;;;;5.60;0.50;;;;;;;;;;1808529;79;26755;-46
2022/04/17 05:19:20;;;;;;;8.88;0.60;;;;;;;;;;1811761;78;26735;-46
2022/04/17 05:21:51;;;;;;;0.85;0.40;;;;;;;;;;1817938;79;26712;-45
2022/04/17 05:24:18;;;;;;;1.50;0.20;;;;;;;;;;1817591;78;26352;-44
2022/04/17 05:26:45;;;;;;;1.92;0.50;;;;;;;;;;1823629;78;26736;-45
2022/04/17 05:29:12;;;;;;;1.70;0.50;;;;;;;;;;1819997;78;26983;-44
2022/04/17 05:31:39;;;;;;;3.47;0.40;;;;;;;;;;1819285;79;26773;-47
2022/04/17 05:34:07;;;;;;;1.05;0.28;;;;;;;;;;1819969;79;26722;-46
2022/04/17 05:36:34;;;;;;;1.77;0.50;;;;;;;;;;1819317;79;27249;-46
2022/04/17 05:39:01;;;;;;;2.85;0.35;;;;;;;;;;1818733;77;26342;-47
2022/04/17 05:41:29;;;;;;;0.85;0.40;;;;;;;;;;1819738;78;26356;-45
2022/04/17 05:43:57;;;;;;;0.30;0.30;;;;;;;;;;1815281;79;26790;-45
2022/04/17 05:46:26;;;;;;;0.37;0.35;;;;;;;;;;1815250;78;26334;-47
2022/04/17 05:48:54;;;;;;;3.30;0.42;;;;;;;;;;1817274;79;26278;-47
2022/04/17 05:51:21;;;;;;;1.35;0.30;;;;;;;;;;1819881;79;26337;-49
2022/04/17 05:53:48;;;;;;;0.95;0.50;;;;;;;;;;1815437;78;26219;-44
2022/04/17 05:56:15;;;;;;;1.15;0.30;;;;;;;;;;1817474;79;26283;-46
2022/04/17 05:58:43;;;;;;;1.17;0.40;;;;;;;;;;1818865;79;26271;-49
2022/04/17 06:01:11;;;;;;;0.40;0.30;;;;;;;;;;1814277;79;26267;-50
2022/04/17 06:03:38;;;;;;;1.40;0.42;;;;;;;;;;1818668;78;26318;-50
2022/04/17 06:06:06;;;;;;;0.95;0.35;;;;;;;;;;1815411;79;26368;-50
2022/04/17 06:08:33;;;;;;;1.20;0.40;;;;;;;;;;1812742;79;26266;-49
2022/04/17 06:11:01;;;;;;;0.70;0.20;;;;;;;;;;1813882;79;26326;-47
2022/04/17 06:13:28;;;;;;;0.65;0.50;;;;;;;;;;1805791;78;26345;-46
2022/04/17 06:15:55;;;;;;;2.05;0.40;;;;;;;;;;1810418;78;26274;-47
2022/04/17 06:18:22;;;;;;;2.15;0.30;;;;;;;;;;1812544;79;26271;-47
2022/04/17 06:20:50;;;;;;;1.25;0.53;;;;;;;;;;1811999;79;26266;-48
2022/04/17 06:23:17;;;;;;;2.25;0.40;;;;;;;;;;1811845;78;26342;-48
2022/04/17 06:25:44;;;;;;;2.92;0.40;;;;;;;;;;1812542;79;26286;-48
2022/04/17 06:28:12;;;;;;;1.90;0.37;;;;;;;;;;1813959;78;26366;-49
2022/04/17 06:30:39;;;;;;;1.85;0.40;;;;;;;;;;1812352;78;26274;-45
2022/04/17 06:33:07;;;;;;;2.10;0.50;;;;;;;;;;1812339;79;26263;-46
2022/04/17 06:35:34;;;;;;;1.55;0.17;;;;;;;;;;1810736;79;26309;-47
2022/04/17 06:38:02;;;;;;;7.85;0.40;;;;;;;;;;1816971;78;26364;-47
2022/04/17 06:40:36;;;;;;;1.50;0.33;;;;;;;;;;1812091;78;26282;-46
2022/04/17 06:43:09;;;;;;;6.33;0.40;;;;;;;;;;1806302;79;26794;-49
2022/04/17 06:45:34;;;;;;;1.55;0.30;;;;;;;;;;1809302;79;26426;-51
2022/04/17 06:48:11;;;;;;;0.90;0.20;;;;;;;;;;1812080;79;26612;-45
2022/04/17 06:50:39;;;;;;;1.90;0.40;;;;;;;;;;1812683;78;26302;-49
2022/04/17 06:53:06;;;;;;;0.60;0.20;;;;;;;;;;1812658;78;26380;-45
2022/04/17 06:55:34;;;;;;;1.22;0.30;;;;;;;;;;1812409;79;26262;-45
2022/04/17 06:58:01;;;;;;;2.30;0.40;;;;;;;;;;1811816;79;26306;-46
2022/04/17 07:00:28;;;;;;;0.30;0.23;;;;;;;;;;1812861;79;26215;-44
2022/04/17 07:02:55;;;;;;;0.30;0.30;;;;;;;;;;1809996;79;26271;-46
2022/04/17 07:05:23;;;;;;;0.75;0.37;;;;;;;;;;1813012;79;26336;-47
2022/04/17 07:08:00;;;;;;;0.90;0.40;;;;;;;;;;1811006;79;26290;-45
2022/04/17 07:10:28;;;;;;;0.13;0.13;;;;;;;;;;1810865;79;26396;-46
2022/04/17 07:12:56;;;;;;;3.55;0.30;;;;;;;;;;1816425;78;26295;-44
2022/04/17 07:15:27;;;;;;;3.10;0.50;;;;;;;;;;1812082;78;26267;-44
2022/04/17 07:17:55;;;;;;;0.60;0.20;;;;;;;;;;1814077;79;26271;-47
2022/04/17 07:20:23;;;;;;;1.67;0.20;;;;;;;;;;1814008;79;26330;-45
2022/04/17 07:22:52;;;;;;;1.15;0.20;;;;;;;;;;1814155;78;26264;-46
2022/04/17 07:25:19;;;;;;;0.30;0.30;;;;;;;;;;1808047;78;26796;-51
2022/04/17 07:27:47;;;;;;;0.68;0.35;;;;;;;;;;1801410;79;26302;-45
2022/04/17 07:30:16;;;;;;;3.62;0.50;;;;;;;;;;1812968;79;27034;-48
2022/04/17 07:32:44;;;;;;;0.30;0.30;;;;;;;;;;1812844;78;26275;-47
2022/04/17 07:35:13;;;;;;;0.65;0.33;;;;;;;;;;1809765;78;26394;-48
2022/04/17 07:37:41;;;;;;;0.35;0.35;;;;;;;;;;1812437;79;26295;-45
2022/04/17 07:40:14;;;;;;;1.37;0.30;;;;;;;;;;1812712;78;26291;-47
2022/04/17 07:42:41;;;;;;;1.00;0.42;;;;;;;;;;1813679;79;26267;-44
2022/04/17 07:45:09;;;;;;;1.75;0.57;;;;;;;;;;1811982;79;26254;-44
2022/04/17 07:47:37;;;;;;;1.85;0.50;;;;;;;;;;1809406;78;26382;-48
2022/04/17 07:50:07;;;;;;;6.40;0.60;;;;;;;;;;1816932;78;26830;-48
2022/04/17 07:52:34;;;;;;;2.85;0.53;;;;;;;;;;1811762;79;26302;-44
2022/04/17 07:55:03;;;;;;;0.40;0.30;;;;;;;;;;1813817;78;26314;-47
2022/04/17 07:58:22;;;;;;;0.82;0.60;;;;;;;;;;1813089;79;26352;-44
2022/04/17 08:00:03;;;;;;;5.87;0.65;;;;;;;;;;1795334;79;26306;-48
2022/04/17 08:02:40;;;;;;;0.50;0.50;;;;;;;;;;1808957;78;26748;-47
2022/04/17 08:04:59;;;;;;;4.40;0.60;;;;;;;;;;1806620;79;26365;-49
2022/04/17 08:07:26;;;;;;;3.80;0.70;;;;;;;;;;1812964;79;26346;-47
2022/04/17 08:09:54;;;;;;;2.95;0.47;;;;;;;;;;1813012;78;26389;-47
2022/04/17 08:12:21;;;;;;;2.72;0.70;;;;;;;;;;1806292;79;26364;-45
2022/04/17 08:14:48;;;;;;;1.55;0.50;;;;;;;;;;1808229;78;26485;-49
2022/04/17 08:17:17;;;;;;;1.55;0.50;;;;;;;;;;1808842;79;26930;-48
2022/04/17 08:19:44;;;;;;;1.85;0.60;;;;;;;;;;1807940;79;26298;-49
2022/04/17 08:22:12;;;;;;;1.77;0.60;;;;;;;;;;1806046;78;26281;-45
2022/04/17 08:24:39;;;;;;;2.35;0.60;;;;;;;;;;1805405;78;26297;-47
2022/04/17 08:27:06;;;;;;;2.90;0.57;;;;;;;;;;1804448;78;26270;-47
2022/04/17 08:29:34;;;;;;;1.95;0.60;;;;;;;;;;1808675;79;26210;-46
2022/04/17 08:32:01;;;;;;;1.62;0.60;;;;;;;;;;1807113;79;26290;-49
2022/04/17 08:34:28;;;;;;;0.85;0.60;;;;;;;;;;1809094;78;26364;-47
2022/04/17 08:36:55;;;;;;;0.72;0.40;;;;;;;;;;1807979;79;26285;-50
2022/04/17 08:39:23;;;;;;;2.37;0.88;;;;;;;;;;1806866;79;26332;-47
2022/04/17 08:41:51;;;;;;;1.10;0.50;;;;;;;;;;1808554;79;26600;-46
2022/04/17 08:44:18;;;;;;;0.98;0.70;;;;;;;;;;1805033;78;26942;-48
2022/04/17 08:46:45;;;;;;;0.68;0.50;;;;;;;;;;1805368;78;26777;-45
2022/04/17 08:49:13;;;;;;;1.22;0.60;;;;;;;;;;1810013;78;26337;-47
2022/04/17 08:51:42;;;;;;;1.82;0.57;;;;;;;;;;1804900;79;26278;-49
2022/04/17 08:54:09;;;;;;;0.98;0.72;;;;;;;;;;1808686;78;26385;-45
2022/04/17 08:56:36;;;;;;;2.55;0.80;;;;;;;;;;1804481;78;26305;-44
2022/04/17 08:59:04;;;;;;;1.30;0.68;;;;;;;;;;1808458;79;26387;-44
2022/04/17 09:01:32;;;;;;;1.30;0.60;;;;;;;;;;1808349;79;26258;-46
2022/04/17 09:04:00;;;;;;;0.60;0.60;;;;;;;;;;1807291;79;26281;-46
2022/04/17 09:06:27;;;;;;;1.17;0.60;;;;;;;;;;1808261;78;26289;-47
2022/04/17 09:09:02;;;;;;;0.70;0.50;;;;;;;;;;1804997;79;27344;-50
2022/04/17 09:11:30;;;;;;;1.12;0.45;;;;;;;;;;1803773;78;26348;-44
2022/04/17 09:13:58;;;;;;;0.62;0.60;;;;;;;;;;1805491;78;26293;-48
2022/04/17 09:16:30;;;;;;;2.70;0.70;;;;;;;;;;1804771;78;26285;-49
2022/04/17 09:18:58;;;;;;;1.55;0.50;;;;;;;;;;1802196;79;26322;-45
2022/04/17 09:21:29;;;;;;;0.40;0.40;;;;;;;;;;1807927;78;26250;-44
2022/04/17 09:23:58;;;;;;;1.07;0.30;;;;;;;;;;1808633;77;26334;-49
2022/04/17 09:26:25;;;;;;;1.55;0.62;;;;;;;;;;1806144;79;26281;-46
2022/04/17 09:28:53;;;;;;;0.80;0.60;;;;;;;;;;1807484;78;26773;-49
2022/04/17 09:31:22;;;;;;;0.50;0.50;;;;;;;;;;1805171;79;26884;-49
2022/04/17 09:33:50;;;;;;;2.33;0.70;;;;;;;;;;1804704;78;26288;-45
2022/04/17 09:36:17;;;;;;;0.93;0.47;;;;;;;;;;1810416;79;26460;-62
2022/04/17 09:38:47;;;;;;;1.15;0.60;;;;;;;;;;1803843;79;26268;-47
2022/04/17 09:41:13;;;;;;;0.53;0.53;;;;;;;;;;1805827;79;26756;-50
2022/04/17 09:43:43;;;;;;;0.50;0.50;;;;;;;;;;1807547;78;26783;-46
2022/04/17 09:46:10;;;;;;;0.30;0.30;;;;;;;;;;1807311;78;26282;-47
2022/04/17 09:48:43;;;;;;;1.70;0.50;;;;;;;;;;1805412;79;26918;-46
2022/04/17 09:51:26;;;;;;;1.05;0.55;;;;;;;;;;1807937;79;26207;-50
2022/04/17 09:54:00;;;;;;;0.40;0.40;;;;;;;;;;1806264;79;26277;-47
2022/04/17 09:56:32;;;;;;;0.93;0.65;;;;;;;;;;1806822;78;26640;-47
2022/04/17 09:59:01;;;;;;;0.85;0.50;;;;;;;;;;1806895;78;26372;-47
2022/04/17 10:01:28;;;;;;;1.50;0.68;;;;;;;;;;1807854;78;26389;-47
2022/04/17 10:03:56;;;;;;;1.00;0.53;;;;;;;;;;1812802;78;26456;-50
2022/04/17 10:06:26;;;;;;;0.40;0.40;;;;;;;;;;1804004;78;26266;-43
2022/04/17 10:08:54;;;;;;;1.82;0.60;;;;;;;;;;1807806;78;26770;-49
2022/04/17 10:11:23;;;;;;;0.45;0.42;;;;;;;;;;1808413;79;26266;-48
2022/04/17 10:13:51;;;;;;;0.70;0.70;;;;;;;;;;1812758;79;26262;-49
2022/04/17 10:16:20;;;;;;;1.55;0.40;;;;;;;;;;1807891;78;26299;-47
2022/04/17 10:18:49;;;;;;;0.95;0.60;;;;;;;;;;1803223;79;26730;-44
2022/04/17 10:21:17;;;;;;;0.80;0.80;;;;;;;;;;1804397;78;26714;-45
2022/04/17 10:23:46;;;;;;;0.42;0.30;;;;;;;;;;1804961;79;26254;-48
2022/04/17 10:26:14;;;;;;;1.65;0.53;;;;;;;;;;1812364;79;26258;-47
2022/04/17 10:28:43;;;;;;;0.50;0.50;;;;;;;;;;1812062;79;26373;-47
2022/04/17 10:31:13;;;;;;;0.65;0.53;;;;;;;;;;1804558;78;26250;-48
2022/04/17 10:33:48;;;;;;;2.25;0.72;;;;;;;;;;1807437;79;26603;-53
2022/04/17 10:36:23;;;;;;;4.10;0.40;;;;;;;;;;1809430;79;26727;-48
2022/04/17 10:39:08;;;;;;;0.57;0.55;;;;;;;;;;1807464;79;26334;-49
2022/04/17 10:41:35;;;;;;;0.42;0.40;;;;;;;;;;1811748;79;26306;-48
2022/04/17 10:44:04;;;;;;;3.67;0.65;;;;;;;;;;1808720;78;26687;-49
2022/04/17 10:46:33;;;;;;;0.30;0.30;;;;;;;;;;1808472;78;26369;-49
2022/04/17 10:49:05;;;;;;;0.50;0.30;;;;;;;;;;1807739;79;26322;-48
2022/04/17 10:51:33;;;;;;;4.22;1.02;;;;;;;;;;1810454;79;26900;-46
2022/04/17 10:54:05;;;;;;;1.40;0.40;;;;;;;;;;1810054;78;27486;-49
2022/04/17 10:56:40;;;;;;;1.07;0.53;;;;;;;;;;1812333;79;26275;-48
2022/04/17 10:59:18;;;;;;;0.33;0.33;;;;;;;;;;1812318;79;26279;-50
2022/04/17 11:01:47;;;;;;;0.40;0.40;;;;;;;;;;1812609;79;26259;-50
2022/04/17 11:04:17;;;;;;;0.78;0.50;;;;;;;;;;1812404;79;26303;-43
2022/04/17 11:06:45;;;;;;;0.62;0.62;;;;;;;;;;1805207;78;26376;-55
2022/04/17 11:09:14;;;;;;;7.37;0.75;;;;;;;;;;1802015;79;26377;-56
2022/04/17 11:11:47;;;;;;;1.30;0.40;;;;;;;;;;1801441;78;26611;-53
2022/04/17 11:14:17;;;;;;;0.40;0.40;;;;;;;;;;1803385;78;26384;-51
2022/04/17 11:16:48;;;;;;;0.62;0.40;;;;;;;;;;1804322;78;26754;-50
2022/04/17 11:19:17;;;;;;;2.95;0.47;;;;;;;;;;1811416;79;26747;-48
2022/04/17 11:21:45;;;;;;;0.55;0.40;;;;;;;;;;1812231;79;26262;-48
2022/04/17 11:24:13;;;;;;;1.10;0.40;;;;;;;;;;1811421;79;26286;-46
2022/04/17 11:26:57;;;;;;;2.35;0.40;;;;;;;;;;1812623;78;26675;-49
2022/04/17 11:29:44;;;;;;;1.17;0.30;;;;;;;;;;1812649;78;26670;-48
2022/04/17 11:32:18;;;;;;;1.27;0.50;;;;;;;;;;1809361;78;26372;-47
2022/04/17 11:34:55;;;;;;;0.50;0.50;;;;;;;;;;1810005;79;27348;-46
2022/04/17 11:37:24;;;;;;;0.40;0.40;;;;;;;;;;1813103;79;26365;-45
2022/04/17 11:39:52;;;;;;;3.20;0.45;;;;;;;;;;1813031;78;26300;-46
2022/04/17 11:42:20;;;;;;;0.40;0.40;;;;;;;;;;1812829;79;26294;-50
2022/04/17 11:44:48;;;;;;;1.12;0.50;;;;;;;;;;1798825;78;26266;-46
2022/04/17 11:47:16;;;;;;;0.30;0.30;;;;;;;;;;1803080;79;26678;-47
2022/04/17 11:49:44;;;;;;;0.50;0.50;;;;;;;;;;1814240;79;26227;-48
2022/04/17 11:52:12;;;;;;;0.40;0.40;;;;;;;;;;1810617;78;27504;-45
2022/04/17 11:54:40;;;;;;;0.30;0.30;;;;;;;;;;1814051;79;26812;-48
2022/04/17 11:57:13;;;;;;;0.50;0.50;;;;;;;;;;1814085;79;26259;-46
2022/04/17 11:59:45;;;;;;;0.40;0.40;;;;;;;;;;1807327;78;26283;-46
2022/04/17 12:02:14;;;;;;;1.42;0.40;;;;;;;;;;1811966;79;26310;-46
2022/04/17 12:04:42;;;;;;;0.30;0.30;;;;;;;;;;1811281;78;26383;-48
2022/04/17 12:07:10;;;;;;;0.30;0.30;;;;;;;;;;1814018;79;26348;-45
2022/04/17 12:09:39;;;;;;;0.40;0.40;;;;;;;;;;1814388;79;26940;-46
2022/04/17 12:12:08;;;;;;;0.72;0.45;;;;;;;;;;1809903;78;26301;-45
2022/04/17 12:14:35;;;;;;;0.37;0.37;;;;;;;;;;1814811;78;26443;-48
2022/04/17 12:17:02;;;;;;;0.50;0.50;;;;;;;;;;1803988;78;26322;-47
2022/04/17 12:19:29;;;;;;;0.33;0.33;;;;;;;;;;1803997;78;26866;-49
2022/04/17 12:21:57;;;;;;;0.37;0.37;;;;;;;;;;1808344;78;26318;-50
2022/04/17 12:24:27;;;;;;;0.50;0.50;;;;;;;;;;1807687;79;26263;-45
2022/04/17 12:26:55;;;;;;;0.50;0.50;;;;;;;;;;1822122;78;26337;-47
2022/04/17 12:29:23;;;;;;;0.50;0.50;;;;;;;;;;1812457;79;26270;-45
2022/04/17 12:31:51;;;;;;;0.50;0.50;;;;;;;;;;1802261;79;26287;-47
2022/04/17 12:34:22;;;;;;;0.50;0.50;;;;;;;;;;1813067;79;26337;-47
2022/04/17 12:36:48;;;;;;;0.53;0.40;;;;;;;;;;1811121;78;26361;-45
2022/04/17 12:39:16;;;;;;;1.50;0.40;;;;;;;;;;1801743;79;26950;-49
2022/04/17 12:41:53;;;;;;;0.33;0.33;;;;;;;;;;1813053;79;26691;-46
2022/04/17 12:44:14;;;;;;;0.40;0.40;;;;;;;;;;1808256;78;26301;-44
2022/04/17 12:46:44;;;;;;;0.45;0.45;;;;;;;;;;1804774;78;26341;-47
2022/04/17 12:49:13;;;;;;;0.42;0.42;;;;;;;;;;1807277;78;26316;-46
2022/04/17 12:51:41;;;;;;;0.47;0.47;;;;;;;;;;1814111;78;26314;-46
2022/04/17 12:54:10;;;;;;;0.40;0.40;;;;;;;;;;1807726;78;26326;-49
2022/04/17 12:56:37;;;;;;;1.60;0.50;;;;;;;;;;1814112;79;26664;-45
2022/04/17 12:59:07;;;;;;;0.42;0.42;;;;;;;;;;1814112;79;26360;-47
2022/04/17 13:01:37;;;;;;;0.50;0.50;;;;;;;;;;1820572;78;26311;-46
2022/04/17 13:04:08;;;;;;;0.33;0.33;;;;;;;;;;1814045;79;26695;-48
2022/04/17 13:06:35;;;;;;;0.50;0.50;;;;;;;;;;1814181;79;26670;-46
2022/04/17 13:09:13;;;;;;;0.47;0.47;;;;;;;;;;1812221;78;26318;-50
2022/04/17 13:11:42;;;;;;;0.50;0.50;;;;;;;;;;1806687;78;26331;-48
2022/04/17 13:14:10;;;;;;;0.40;0.40;;;;;;;;;;1811233;79;26327;-47
2022/04/17 13:16:38;;;;;;;0.50;0.50;;;;;;;;;;1804013;78;26352;-47
2022/04/17 13:19:06;;;;;;;0.65;0.65;;;;;;;;;;1801683;78;26776;-47
2022/04/17 13:21:33;;;;;;;0.50;0.50;;;;;;;;;;1803415;78;26745;-47
2022/04/17 13:24:01;;;;;;;0.50;0.50;;;;;;;;;;1816033;78;26809;-48
2022/04/17 13:26:29;;;;;;;0.40;0.40;;;;;;;;;;1814141;79;26353;-49
2022/04/17 13:28:57;;;;;;;0.50;0.50;;;;;;;;;;1814078;79;27283;-46
2022/04/17 13:31:24;;;;;;;0.40;0.40;;;;;;;;;;1811419;78;26451;-47
2022/04/17 13:33:51;;;;;;;0.50;0.50;;;;;;;;;;1813357;79;26396;-47
2022/04/17 13:36:18;;;;;;;0.40;0.40;;;;;;;;;;1810711;78;26290;-50
2022/04/17 13:38:46;;;;;;;0.50;0.50;;;;;;;;;;1806253;79;26334;-47
2022/04/17 13:41:14;;;;;;;0.50;0.50;;;;;;;;;;1809756;79;26322;-48
2022/04/17 13:43:41;;;;;;;0.40;0.40;;;;;;;;;;1808207;79;26357;-48
2022/04/17 13:46:08;;;;;;;0.42;0.42;;;;;;;;;;1811733;78;26337;-48
2022/04/17 13:48:38;;;;;;;0.60;0.60;;;;;;;;;;1813157;79;26262;-46
2022/04/17 13:51:09;;;;;;;0.50;0.50;;;;;;;;;;1810039;79;26735;-47
2022/04/17 13:53:33;;;;;;;0.50;0.50;;;;;;;;;;1809813;78;26820;-45
2022/04/17 13:56:01;;;;;;;0.50;0.50;;;;;;;;;;1813584;79;26274;-50
2022/04/17 13:58:29;;;;;;;0.60;0.60;;;;;;;;;;1812538;78;26298;-48
2022/04/17 14:00:57;;;;;;;0.60;0.60;;;;;;;;;;1796752;79;26942;-46
2022/04/17 14:03:25;;;;;;;0.50;0.50;;;;;;;;;;1810695;79;25642;-47
2022/04/17 14:05:53;;;;;;;0.50;0.50;;;;;;;;;;1794984;79;26673;-48
2022/04/17 14:08:21;;;;;;;0.40;0.40;;;;;;;;;;1794230;79;26339;-46
2022/04/17 14:10:49;;;;;;;0.50;0.50;;;;;;;;;;1805321;78;26401;-48
2022/04/17 14:13:17;;;;;;;0.50;0.50;;;;;;;;;;1798879;79;26361;-47
2022/04/17 14:15:44;;;;;;;0.60;0.60;;;;;;;;;;1802221;78;26261;-45
2022/04/17 14:18:11;;;;;;;0.60;0.60;;;;;;;;;;1807332;78;26310;-48
2022/04/17 14:20:38;;;;;;;0.40;0.40;;;;;;;;;;1805512;78;26423;-47
2022/04/17 14:23:07;;;;;;;0.60;0.60;;;;;;;;;;1791760;79;26278;-48
2022/04/17 14:25:35;;;;;;;0.40;0.40;;;;;;;;;;1814202;79;26557;-50
2022/04/17 14:28:02;;;;;;;1.17;0.53;;;;;;;;;;1814174;79;26302;-50
2022/04/17 14:30:30;;;;;;;0.55;0.55;;;;;;;;;;1794446;79;26275;-47
2022/04/17 14:32:57;;;;;;;0.70;0.70;;;;;;;;;;1808518;78;26274;-46
2022/04/17 14:35:24;;;;;;;0.42;0.42;;;;;;;;;;1814441;79;26804;-45
2022/04/17 14:37:52;;;;;;;0.60;0.60;;;;;;;;;;1796601;79;26861;-46
2022/04/17 14:40:19;;;;;;;0.57;0.57;;;;;;;;;;1810023;79;26255;-46
2022/04/17 14:42:46;;;;;;;0.50;0.50;;;;;;;;;;1813336;79;26483;-48
2022/04/17 14:45:15;;;;;;;0.40;0.40;;;;;;;;;;1812028;78;26327;-47
2022/04/17 14:47:42;;;;;;;1.10;0.50;;;;;;;;;;1810712;79;26337;-45
2022/04/17 14:50:10;;;;;;;0.40;0.40;;;;;;;;;;1810666;79;26306;-47
2022/04/17 14:52:37;;;;;;;0.60;0.60;;;;;;;;;;1811006;79;26774;-49
2022/04/17 14:55:06;;;;;;;0.47;0.47;;;;;;;;;;1810759;78;26342;-48
2022/04/17 14:57:34;;;;;;;0.47;0.47;;;;;;;;;;1812321;79;26299;-46
2022/04/17 15:00:01;;;;;;;0.40;0.40;;;;;;;;;;1811617;79;26282;-47